Time;durP1;ratioP1;P1;durP2;ratioP2;P2;SDS_P1;SDS_P2;PMS_P1;PMS_P2;Temp;Humidity;BMP_temperature;BMP_pressure;BME280_temperature;BME280_humidity;BME280_pressure;Samples;Min_cycle;Max_cycle;Signal;HPM_P1;HPM_P2
2022/04/22 00:01:28;;;;;;;57.97;42.33;;;28.20;99.90;;;;;;5057206;28;20082;-67
2022/04/22 00:03:55;;;;;;;59.75;45.55;;;28.20;99.90;;;;;;5065055;28;20021;-65
2022/04/22 00:06:22;;;;;;;56.33;43.83;;;28.20;99.90;;;;;;5058238;28;20033;-65
2022/04/22 00:08:49;;;;;;;60.17;46.30;;;28.10;99.90;;;;;;5071403;28;20078;-65
2022/04/22 00:14:03;;;;;;;55.50;42.05;;;28.20;99.90;;;;;;5041757;28;20060;-64
2022/04/22 00:16:31;;;;;;;54.00;44.28;;;28.20;99.90;;;;;;5053181;28;20036;-64
2022/04/22 00:18:59;;;;;;;55.97;40.25;;;28.30;99.90;;;;;;5047447;28;20366;-63
2022/04/22 00:21:26;;;;;;;51.67;41.05;;;28.30;99.90;;;;;;5055468;28;20025;-65
2022/04/22 00:23:54;;;;;;;56.13;42.55;;;28.30;99.90;;;;;;5045883;28;20029;-66
2022/04/22 00:26:22;;;;;;;60.25;42.65;;;28.30;99.90;;;;;;5048574;28;20024;-66
2022/04/22 00:28:49;;;;;;;53.15;42.55;;;28.30;99.90;;;;;;5047141;28;20100;-65
2022/04/22 00:31:16;;;;;;;55.83;43.22;;;28.40;99.90;;;;;;5045953;28;20029;-63
2022/04/22 00:33:43;;;;;;;55.00;43.50;;;28.40;99.90;;;;;;5043219;28;20129;-63
2022/04/22 00:36:11;;;;;;;67.00;48.40;;;28.40;99.90;;;;;;5044693;28;20552;-66
2022/04/22 00:38:40;;;;;;;59.25;46.38;;;28.40;99.90;;;;;;5055080;28;20395;-63
2022/04/22 00:41:07;;;;;;;59.65;44.08;;;28.40;99.90;;;;;;5054434;28;20027;-63
2022/04/22 00:43:45;;;;;;;53.72;43.25;;;28.50;99.90;;;;;;5044127;28;20362;-64
2022/04/22 00:46:13;;;;;;;58.53;45.00;;;28.50;99.90;;;;;;5042632;28;20032;-64
2022/04/22 00:48:40;;;;;;;64.25;48.67;;;28.50;99.90;;;;;;5035788;28;20026;-63
2022/04/22 00:51:09;;;;;;;60.55;47.58;;;28.60;99.90;;;;;;5053737;28;20052;-63
2022/04/22 00:53:37;;;;;;;63.80;45.47;;;28.60;99.90;;;;;;5044655;28;20044;-64
2022/04/22 00:56:06;;;;;;;57.42;44.00;;;28.60;99.90;;;;;;5054698;28;20017;-63
2022/04/22 00:58:36;;;;;;;48.65;36.20;;;28.70;99.90;;;;;;5042294;28;20091;-64
2022/04/22 01:01:03;;;;;;;43.25;34.38;;;28.80;99.90;;;;;;5050021;28;20363;-63
2022/04/22 01:03:31;;;;;;;47.17;35.70;;;28.90;99.90;;;;;;5049739;28;20551;-63
2022/04/22 01:11:19;;;;;;;35.35;29.35;;;29.20;99.90;;;;;;5054683;28;20031;-63
2022/04/22 01:13:50;;;;;;;39.30;29.95;;;29.20;99.90;;;;;;5038812;28;20192;-63
2022/04/22 01:16:19;;;;;;;37.20;24.85;;;29.20;99.90;;;;;;5039817;28;20277;-63
2022/04/22 01:18:47;;;;;;;31.88;24.50;;;29.30;99.90;;;;;;5045134;28;20036;-63
2022/04/22 01:21:20;;;;;;;29.20;19.98;;;29.30;99.90;;;;;;5051976;28;20029;-64
2022/04/22 01:23:52;;;;;;;22.33;15.43;;;29.30;99.90;;;;;;5056319;28;20091;-64
2022/04/22 01:26:22;;;;;;;24.58;13.98;;;29.40;99.90;;;;;;5055116;28;20385;-62
2022/04/22 01:28:52;;;;;;;22.48;13.55;;;29.40;99.90;;;;;;5054123;28;20461;-63
2022/04/22 01:31:22;;;;;;;20.38;13.80;;;29.40;99.90;;;;;;5044224;28;20029;-62
2022/04/22 01:33:52;;;;;;;22.52;14.43;;;29.40;99.90;;;;;;5038951;28;20060;-63
2022/04/22 01:36:22;;;;;;;19.48;14.13;;;29.40;99.90;;;;;;5048460;28;20470;-63
2022/04/22 01:38:54;;;;;;;17.30;13.65;;;29.50;99.90;;;;;;5042096;28;20060;-62
2022/04/22 01:41:27;;;;;;;17.70;13.45;;;29.50;99.90;;;;;;5035333;28;20029;-63
2022/04/22 01:43:56;;;;;;;16.05;12.80;;;29.60;99.90;;;;;;5044788;28;20043;-63
2022/04/22 01:46:27;;;;;;;17.10;11.80;;;29.60;99.90;;;;;;5045900;28;20048;-63
2022/04/22 01:48:59;;;;;;;14.88;12.32;;;29.50;99.90;;;;;;5041742;28;20029;-63
2022/04/22 01:51:30;;;;;;;20.23;14.38;;;29.40;99.90;;;;;;5042762;28;20026;-62
2022/04/22 01:54:04;;;;;;;21.25;14.15;;;29.40;99.90;;;;;;5047505;28;20024;-64
2022/04/22 01:56:32;;;;;;;20.98;14.77;;;29.40;99.90;;;;;;5048015;28;20037;-63
2022/04/22 01:59:02;;;;;;;16.92;13.35;;;29.40;99.90;;;;;;5037660;28;20033;-62
2022/04/22 02:01:30;;;;;;;23.40;13.68;;;29.40;99.90;;;;;;5050376;28;20037;-62
2022/04/22 02:04:02;;;;;;;20.20;15.63;;;29.30;99.90;;;;;;5040906;28;20122;-62
2022/04/22 02:06:34;;;;;;;28.17;19.43;;;29.30;99.90;;;;;;5039291;28;20120;-62
2022/04/22 02:09:02;;;;;;;;;;;29.40;99.90;;;;;;5044515;28;20151;-64
2022/04/22 02:11:35;;;;;;;55.80;34.30;;;29.50;99.90;;;;;;5045846;28;19913;-62
2022/04/22 02:14:03;;;;;;;24.85;17.95;;;29.50;99.90;;;;;;5045247;28;20040;-63
2022/04/22 02:16:32;;;;;;;27.83;18.05;;;29.50;99.90;;;;;;5046676;28;20106;-63
2022/04/22 02:19:06;;;;;;;19.08;15.13;;;29.60;99.90;;;;;;5049347;28;20039;-63
2022/04/22 02:21:39;;;;;;;31.65;24.08;;;29.60;99.90;;;;;;5037836;28;20151;-62
2022/04/22 02:24:08;;;;;;;47.25;33.40;;;29.70;99.90;;;;;;5051236;28;20044;-63
2022/04/22 02:29:25;;;;;;;22.50;16.73;;;29.60;99.90;;;;;;5039974;28;20025;-63
2022/04/22 02:31:53;;;;;;;19.42;14.45;;;29.70;99.90;;;;;;5046961;28;20048;-63
2022/04/22 02:34:24;;;;;;;28.73;21.75;;;29.70;99.90;;;;;;5043952;28;20134;-63
2022/04/22 02:36:53;;;;;;;25.90;19.30;;;29.80;99.90;;;;;;5045040;28;20037;-63
2022/04/22 02:39:22;;;;;;;41.70;25.67;;;30.00;99.90;;;;;;5046562;28;20022;-62
2022/04/22 02:47:19;;;;;;;22.75;14.15;;;30.10;99.90;;;;;;5048402;28;20026;-64
2022/04/22 02:49:49;;;;;;;57.05;39.28;;;30.00;99.90;;;;;;5045110;28;20425;-64
2022/04/22 02:52:18;;;;;;;27.27;19.60;;;30.10;99.90;;;;;;5047564;28;20503;-64
2022/04/22 02:54:48;;;;;;;22.63;15.88;;;30.10;99.90;;;;;;5048670;28;20377;-65
2022/04/22 02:57:17;;;;;;;21.95;14.30;;;30.10;99.90;;;;;;5049484;28;20446;-65
2022/04/22 02:59:58;;;;;;;19.65;13.88;;;30.10;99.90;;;;;;5047010;28;20039;-62
2022/04/22 03:02:28;;;;;;;26.48;16.98;;;30.10;99.90;;;;;;5042271;28;20025;-66
2022/04/22 03:04:58;;;;;;;24.48;14.35;;;30.10;99.90;;;;;;5045030;28;20033;-67
2022/04/22 03:07:29;;;;;;;31.52;14.95;;;30.00;99.90;;;;;;5052356;28;20044;-66
2022/04/22 03:10:01;;;;;;;22.13;14.87;;;30.00;99.90;;;;;;5047861;28;20037;-61
2022/04/22 03:12:35;;;;;;;21.08;14.75;;;30.00;99.90;;;;;;5046400;28;20329;-61
2022/04/22 03:15:05;;;;;;;23.83;17.30;;;30.00;99.90;;;;;;5046619;28;20022;-61
2022/04/22 03:17:43;;;;;;;19.75;14.57;;;30.10;99.90;;;;;;5050392;28;20033;-63
2022/04/22 03:20:13;;;;;;;38.63;25.25;;;30.00;99.90;;;;;;5047925;28;20025;-65
2022/04/22 03:22:41;;;;;;;44.15;29.55;;;30.10;99.90;;;;;;5046709;28;20044;-65
2022/04/22 03:25:20;;;;;;;32.15;16.95;;;30.10;99.90;;;;;;5043932;28;20107;-64
2022/04/22 03:27:50;;;;;;;26.05;15.40;;;30.10;99.90;;;;;;5049282;28;20033;-65
2022/04/22 03:30:28;;;;;;;20.98;14.48;;;30.10;99.90;;;;;;5045096;28;20039;-64
2022/04/22 03:33:01;;;;;;;19.83;13.43;;;30.10;99.90;;;;;;5046007;28;20070;-65
2022/04/22 03:35:34;;;;;;;16.50;12.15;;;30.10;99.90;;;;;;5056849;28;20029;-66
2022/04/22 03:38:03;;;;;;;21.20;13.70;;;30.20;99.90;;;;;;5060662;28;20025;-64
2022/04/22 03:40:31;;;;;;;24.08;13.30;;;30.20;99.90;;;;;;5044460;28;20072;-65
2022/04/22 03:43:04;;;;;;;20.35;13.02;;;30.20;99.90;;;;;;5041520;28;20111;-64
2022/04/22 03:45:41;;;;;;;14.70;12.43;;;30.30;99.90;;;;;;5044501;28;20068;-68
2022/04/22 03:48:16;;;;;;;16.48;12.13;;;30.30;99.90;;;;;;5046038;28;20389;-66
2022/04/22 03:50:45;;;;;;;21.45;13.07;;;30.50;99.90;;;;;;5044727;28;20040;-67
2022/04/22 03:53:19;;;;;;;21.35;12.10;;;30.60;99.90;;;;;;5042722;28;20152;-67
2022/04/22 03:55:53;;;;;;;21.95;11.98;;;30.60;99.90;;;;;;5036382;28;20061;-66
2022/04/22 03:58:25;;;;;;;18.02;12.15;;;30.60;99.90;;;;;;5041296;28;20521;-68
2022/04/22 04:00:54;;;;;;;;;;;30.60;99.90;;;;;;5057011;28;20466;-66
2022/04/22 04:03:26;;;;;;;15.18;11.80;;;30.60;99.90;;;;;;5047862;28;19952;-66
2022/04/22 04:05:54;;;;;;;;;;;30.70;99.90;;;;;;5045996;28;20037;-66
2022/04/22 04:08:24;;;;;;;15.82;11.60;;;30.70;99.90;;;;;;5037188;28;19913;-67
2022/04/22 04:16:16;;;;;;;17.15;10.18;;;30.70;99.90;;;;;;5035945;28;20017;-66
2022/04/22 04:18:44;;;;;;;16.05;10.63;;;30.70;99.90;;;;;;5035882;28;20060;-66
2022/04/22 04:23:57;;;;;;;17.48;10.43;;;30.90;99.90;;;;;;5036238;28;20494;-66
2022/04/22 04:26:29;;;;;;;14.88;10.70;;;31.00;99.90;;;;;;5043538;28;20017;-66
2022/04/22 04:28:58;;;;;;;16.58;11.23;;;31.10;99.90;;;;;;5055801;28;20021;-68
2022/04/22 04:31:33;;;;;;;21.05;11.65;;;31.20;99.90;;;;;;5055722;28;20078;-68
2022/04/22 04:34:01;;;;;;;17.80;10.98;;;31.20;99.90;;;;;;5055239;28;20025;-66
2022/04/22 04:36:31;;;;;;;16.98;10.25;;;31.20;99.90;;;;;;5043528;28;20048;-66
2022/04/22 04:39:05;;;;;;;14.75;10.32;;;31.20;99.90;;;;;;5055401;28;20116;-65
2022/04/22 04:41:37;;;;;;;12.98;9.52;;;31.20;99.90;;;;;;5055386;28;20032;-65
2022/04/22 04:44:06;;;;;;;12.88;8.75;;;31.30;99.90;;;;;;5055276;28;20017;-65
2022/04/22 04:46:38;;;;;;;17.33;10.75;;;31.40;99.90;;;;;;5054331;28;20086;-65
2022/04/22 04:49:06;;;;;;;21.63;13.60;;;31.40;99.90;;;;;;5054809;28;20024;-66
2022/04/22 04:51:35;;;;;;;17.75;10.90;;;31.50;99.90;;;;;;5053572;28;20037;-66
2022/04/22 04:54:05;;;;;;;14.15;9.20;;;31.60;99.90;;;;;;5055370;28;20029;-67
2022/04/22 04:56:34;;;;;;;12.98;9.55;;;31.50;99.90;;;;;;5055033;28;20079;-66
2022/04/22 04:59:12;;;;;;;16.60;9.90;;;31.60;99.90;;;;;;5055299;28;20037;-65
2022/04/22 05:01:42;;;;;;;10.75;8.70;;;31.60;99.90;;;;;;5055419;28;20090;-67
2022/04/22 05:04:11;;;;;;;12.23;9.70;;;31.70;99.90;;;;;;5054051;28;20041;-66
2022/04/22 05:06:44;;;;;;;15.00;8.02;;;31.70;99.90;;;;;;5053715;28;20128;-64
2022/04/22 05:09:13;;;;;;;13.65;9.73;;;31.80;99.90;;;;;;5052867;28;20404;-66
2022/04/22 05:11:41;;;;;;;10.82;8.75;;;31.90;99.90;;;;;;5054987;28;20032;-67
2022/04/22 05:14:10;;;;;;;13.93;9.93;;;31.80;99.90;;;;;;5054755;28;20076;-67
2022/04/22 05:16:41;;;;;;;14.15;10.75;;;32.00;99.90;;;;;;5054495;28;20067;-66
2022/04/22 05:19:12;;;;;;;16.70;10.82;;;32.00;99.90;;;;;;5054560;28;20474;-66
2022/04/22 05:21:45;;;;;;;18.90;13.53;;;32.10;99.90;;;;;;5054559;28;20143;-66
2022/04/22 05:24:16;;;;;;;16.15;12.50;;;32.00;99.90;;;;;;5054618;28;20669;-66
2022/04/22 05:26:48;;;;;;;15.27;12.73;;;32.00;99.90;;;;;;5054209;28;20111;-66
2022/04/22 05:34:42;;;;;;;16.85;12.60;;;32.10;99.90;;;;;;5054163;28;20021;-66
2022/04/22 05:37:13;;;;;;;14.02;11.10;;;32.00;99.90;;;;;;5046037;28;20025;-67
2022/04/22 05:39:43;;;;;;;17.75;12.85;;;31.90;99.90;;;;;;5051020;28;20032;-64
2022/04/22 05:42:12;;;;;;;18.33;12.55;;;31.80;99.90;;;;;;5044502;28;20021;-66
2022/04/22 05:44:43;;;;;;;19.98;13.38;;;31.80;99.90;;;;;;5054192;28;20040;-65
2022/04/22 05:47:14;;;;;;;19.25;14.82;;;31.70;99.90;;;;;;5054228;28;20028;-65
2022/04/22 05:49:42;;;;;;;;;;;31.70;99.90;;;;;;5054833;28;20025;-65
2022/04/22 05:52:13;;;;;;;17.60;13.00;;;31.70;99.90;;;;;;5053955;28;19908;-63
2022/04/22 05:54:47;;;;;;;16.70;12.82;;;31.60;99.90;;;;;;5046778;28;20128;-63
2022/04/22 05:57:16;;;;;;;20.80;13.80;;;31.60;99.90;;;;;;5033758;28;20026;-64
2022/04/22 05:59:48;;;;;;;21.35;14.30;;;31.50;99.90;;;;;;5034399;28;20092;-63
2022/04/22 06:02:20;;;;;;;20.02;15.50;;;31.50;99.90;;;;;;5037555;28;20033;-66
2022/04/22 06:04:48;;;;;;;;;;;31.50;99.90;;;;;;5047678;28;20043;-68
2022/04/22 06:07:18;;;;;;;16.75;9.93;;;31.50;99.90;;;;;;5043718;28;19912;-64
2022/04/22 06:12:26;;;;;;;16.20;8.65;;;31.30;99.90;;;;;;5051346;28;20071;-63
2022/04/22 06:15:02;;;;;;;12.77;7.75;;;31.10;99.90;;;;;;5049817;28;20021;-64
2022/04/22 06:17:32;;;;;;;11.48;7.45;;;31.00;99.90;;;;;;5032246;28;20045;-63
2022/04/22 06:20:04;;;;;;;11.65;8.13;;;30.90;99.90;;;;;;5059333;28;20033;-63
2022/04/22 06:22:34;;;;;;;12.57;7.88;;;30.80;99.90;;;;;;5041904;28;20486;-64
2022/04/22 06:25:02;;;;;;;14.30;7.93;;;30.70;99.90;;;;;;5044932;28;20044;-63
2022/04/22 06:27:59;;;;;;;19.88;11.63;;;30.60;99.90;;;;;;5043117;28;20033;-63
2022/04/22 06:30:28;;;;;;;20.98;13.30;;;30.60;99.90;;;;;;5049526;28;20079;-64
2022/04/22 06:33:05;;;;;;;17.40;12.30;;;30.70;99.90;;;;;;5043955;28;20017;-64
2022/04/22 06:35:36;;;;;;;21.85;13.90;;;30.70;99.90;;;;;;5031852;28;20041;-64
2022/04/22 06:38:11;;;;;;;20.33;13.85;;;30.70;99.90;;;;;;5037162;28;20059;-65
2022/04/22 06:46:09;;;;;;;12.15;8.32;;;30.60;99.90;;;;;;5059491;28;20493;-62
2022/04/22 06:48:46;;;;;;;11.77;7.07;;;30.60;99.90;;;;;;5059130;28;20492;-66
2022/04/22 06:51:19;;;;;;;16.55;8.45;;;30.50;99.90;;;;;;5063224;28;20450;-64
2022/04/22 06:53:51;;;;;;;16.67;9.48;;;30.40;99.90;;;;;;5060593;28;20056;-68
2022/04/22 06:56:27;;;;;;;12.85;8.85;;;30.40;99.90;;;;;;5061662;28;20056;-68
2022/04/22 06:59:00;;;;;;;16.75;11.68;;;30.50;99.90;;;;;;5058608;28;20048;-65
2022/04/22 07:01:36;;;;;;;15.02;11.27;;;30.40;99.90;;;;;;5060426;28;20017;-65
2022/04/22 07:04:06;;;;;;;13.93;9.98;;;30.40;99.90;;;;;;5059218;28;20431;-66
2022/04/22 07:06:35;;;;;;;14.13;10.35;;;30.40;99.90;;;;;;5058612;28;20048;-65
2022/04/22 07:09:07;;;;;;;17.52;9.52;;;30.40;99.90;;;;;;5053973;28;20021;-66
2022/04/22 07:11:45;;;;;;;13.57;8.88;;;30.40;99.90;;;;;;5051279;28;20029;-66
2022/04/22 07:14:16;;;;;;;13.85;8.38;;;30.40;99.90;;;;;;5052085;28;20063;-67
2022/04/22 07:16:48;;;;;;;15.02;9.43;;;30.40;99.90;;;;;;5048856;28;20045;-66
2022/04/22 07:19:18;;;;;;;;;;;30.40;99.90;;;;;;5053166;28;20021;-66
2022/04/22 07:21:50;;;;;;;16.33;9.50;;;30.40;99.90;;;;;;5045287;28;19916;-65
2022/04/22 07:24:23;;;;;;;15.13;10.18;;;30.30;99.90;;;;;;5052820;28;20029;-66
2022/04/22 07:27:00;;;;;;;12.20;9.32;;;30.40;99.90;;;;;;5048285;28;20029;-65
2022/04/22 07:29:32;;;;;;;16.50;10.20;;;30.30;99.90;;;;;;5056497;28;20024;-66
2022/04/22 07:32:01;;;;;;;18.23;10.13;;;30.30;99.90;;;;;;5055073;28;20420;-65
2022/04/22 07:34:40;;;;;;;19.35;10.35;;;30.30;99.90;;;;;;5036156;28;20119;-65
2022/04/22 07:37:12;;;;;;;14.98;10.70;;;30.30;99.90;;;;;;5041946;28;20035;-65
2022/04/22 07:39:45;;;;;;;19.08;11.57;;;30.30;99.90;;;;;;5051364;28;20036;-64
2022/04/22 07:42:21;;;;;;;20.10;11.73;;;30.40;99.90;;;;;;5056080;28;20087;-66
2022/04/22 07:47:38;;;;;;;14.75;10.88;;;30.40;99.90;;;;;;5055517;28;20021;-65
2022/04/22 07:50:08;;;;;;;22.77;12.80;;;30.40;99.90;;;;;;5054736;28;20033;-65
2022/04/22 07:52:38;;;;;;;21.55;12.40;;;30.40;99.90;;;;;;5043975;28;20500;-65
2022/04/22 07:55:13;;;;;;;22.05;13.45;;;30.40;99.90;;;;;;5041260;28;20033;-66
2022/04/22 07:57:46;;;;;;;22.52;14.98;;;30.40;99.90;;;;;;5048267;28;20476;-66
2022/04/22 08:00:15;;;;;;;27.20;16.15;;;30.40;99.90;;;;;;5052587;28;20308;-66
2022/04/22 08:02:45;;;;;;;37.05;21.15;;;30.40;99.90;;;;;;5048423;28;20068;-66
2022/04/22 08:05:22;;;;;;;43.20;23.52;;;30.30;99.90;;;;;;5035672;28;20172;-65
2022/04/22 08:07:54;;;;;;;44.95;26.40;;;30.30;99.90;;;;;;5042694;28;20141;-67
2022/04/22 08:10:25;;;;;;;45.22;27.67;;;30.30;99.90;;;;;;5051689;28;23228;-66
2022/04/22 08:12:54;;;;;;;102.00;66.07;;;30.30;99.90;;;;;;5043756;28;20030;-66
2022/04/22 08:15:29;;;;;;;118.95;82.47;;;30.30;99.90;;;;;;5035558;28;20025;-66
2022/04/22 08:18:03;;;;;;;135.65;90.45;;;30.30;99.90;;;;;;5054477;28;20029;-66
2022/04/22 08:20:37;;;;;;;81.65;53.63;;;30.40;99.90;;;;;;5055387;28;20117;-67
2022/04/22 08:23:05;;;;;;;91.13;67.63;;;30.40;99.90;;;;;;5054311;28;20041;-66
2022/04/22 08:25:35;;;;;;;44.90;27.17;;;30.40;99.90;;;;;;5055454;28;20116;-66
2022/04/22 08:28:09;;;;;;;45.38;25.00;;;30.40;99.90;;;;;;5051143;28;20101;-65
2022/04/22 08:30:38;;;;;;;44.42;26.10;;;30.40;99.90;;;;;;5035160;28;20079;-66
2022/04/22 08:33:09;;;;;;;79.32;34.05;;;30.30;99.90;;;;;;5042339;28;20029;-65
2022/04/22 08:35:37;;;;;;;63.73;35.20;;;30.30;99.90;;;;;;5038559;28;20115;-67
2022/04/22 08:38:07;;;;;;;82.63;44.22;;;30.30;99.90;;;;;;5042085;28;20068;-70
2022/04/22 08:40:40;;;;;;;98.88;52.75;;;30.30;99.90;;;;;;5049523;28;20032;-66
2022/04/22 08:43:12;;;;;;;86.95;47.55;;;30.30;99.90;;;;;;5051214;28;20061;-68
2022/04/22 08:45:41;;;;;;;77.10;39.22;;;30.30;99.90;;;;;;5046182;28;20029;-67
2022/04/22 08:50:57;;;;;;;60.50;32.65;;;30.30;99.90;;;;;;5044770;28;20060;-67
2022/04/22 08:53:31;;;;;;;55.38;32.45;;;30.30;99.90;;;;;;5044376;28;20045;-68
2022/04/22 08:56:02;;;;;;;57.97;34.05;;;30.40;99.90;;;;;;5044001;28;20025;-67
2022/04/22 08:58:36;;;;;;;69.97;36.97;;;30.40;99.90;;;;;;5038556;28;20029;-73
2022/04/22 09:01:06;;;;;;;59.00;36.60;;;30.40;99.90;;;;;;5053751;28;20486;-70
2022/04/22 09:03:35;;;;;;;81.82;50.92;;;30.40;99.90;;;;;;5045307;28;20036;-70
2022/04/22 09:06:06;;;;;;;104.70;61.58;;;30.40;99.90;;;;;;5041213;28;20026;-68
2022/04/22 09:08:37;;;;;;;77.32;54.25;;;30.40;99.90;;;;;;5052387;28;20520;-68
2022/04/22 09:11:06;;;;;;;65.70;44.55;;;30.40;99.90;;;;;;5054244;28;20083;-67
2022/04/22 09:13:37;;;;;;;59.95;39.25;;;30.30;99.90;;;;;;5046280;28;20025;-69
2022/04/22 09:16:06;;;;;;;54.53;36.42;;;30.40;99.90;;;;;;5045324;28;20036;-70
2022/04/22 09:18:39;;;;;;;66.05;41.22;;;30.40;99.90;;;;;;5039008;28;20029;-69
2022/04/22 09:21:14;;;;;;;103.38;58.55;;;30.40;99.90;;;;;;5047720;28;20029;-70
2022/04/22 09:23:42;;;;;;;99.80;66.50;;;30.40;99.90;;;;;;5041998;28;20025;-70
2022/04/22 09:26:28;;;;;;;118.20;66.82;;;30.40;99.90;;;;;;5040767;28;20115;-70
2022/04/22 09:29:03;;;;;;;85.93;55.08;;;30.40;99.90;;;;;;5042507;28;20021;-74
2022/04/22 09:31:46;;;;;;;94.63;54.75;;;30.40;99.90;;;;;;5040373;28;20104;-69
2022/04/22 09:34:15;;;;;;;84.82;50.13;;;30.30;99.90;;;;;;5044787;28;20488;-72
2022/04/22 09:44:56;;;;;;;84.50;54.53;;;30.30;99.90;;;;;;5035976;28;20029;-71
2022/04/22 09:47:27;;;;;;;94.30;65.10;;;30.30;99.90;;;;;;5051030;28;20131;-70
2022/04/22 09:49:56;;;;;;;116.18;72.60;;;30.30;99.90;;;;;;5053979;28;20438;-71
2022/04/22 09:52:39;;;;;;;119.82;75.15;;;30.30;99.90;;;;;;5047716;28;20037;-67
2022/04/22 09:55:09;;;;;;;86.38;58.15;;;30.40;99.90;;;;;;5049918;28;20079;-69
2022/04/22 09:57:53;;;;;;;79.05;47.03;;;30.40;99.90;;;;;;5048971;28;20021;-69
2022/04/22 10:00:34;;;;;;;78.60;48.03;;;30.30;99.90;;;;;;5041261;28;20032;-71
2022/04/22 10:03:04;;;;;;;57.90;37.85;;;30.40;99.90;;;;;;5038720;28;20035;-76
2022/04/22 10:05:36;;;;;;;58.70;36.22;;;30.30;99.90;;;;;;5052213;28;20055;-69
2022/04/22 10:08:05;;;;;;;58.53;41.10;;;30.30;99.90;;;;;;5053568;28;20080;-73
2022/04/22 10:10:40;;;;;;;75.13;44.70;;;30.30;99.90;;;;;;5053389;28;20059;-72
2022/04/22 10:13:14;;;;;;;95.63;62.50;;;30.20;99.90;;;;;;5033662;28;20025;-70
2022/04/22 10:15:45;;;;;;;83.88;53.53;;;30.20;99.90;;;;;;5041794;28;20036;-73
2022/04/22 10:18:17;;;;;;;67.53;45.58;;;30.20;99.90;;;;;;5039493;28;20025;-72
2022/04/22 10:20:46;;;;;;;109.57;75.32;;;30.30;99.90;;;;;;5060731;28;20040;-67
2022/04/22 10:23:14;;;;;;;145.50;92.30;;;30.20;99.90;;;;;;5048530;28;20398;-72
2022/04/22 10:25:43;;;;;;;239.55;133.40;;;30.10;99.90;;;;;;5052159;28;20040;-71
2022/04/22 10:28:13;;;;;;;146.82;90.28;;;30.10;99.90;;;;;;5046978;28;20025;-71
2022/04/22 10:30:43;;;;;;;133.65;83.07;;;30.10;99.90;;;;;;5039019;28;20458;-70
2022/04/22 10:33:12;;;;;;;143.32;89.95;;;30.10;99.90;;;;;;5048772;28;20025;-69
2022/04/22 10:35:43;;;;;;;143.88;89.97;;;30.20;99.90;;;;;;5055648;28;20040;-70
2022/04/22 10:38:29;;;;;;;113.38;72.30;;;30.30;99.90;;;;;;5042040;28;20028;-71
2022/04/22 10:41:00;;;;;;;115.35;73.75;;;30.20;99.90;;;;;;5050969;28;20033;-69
2022/04/22 10:43:33;;;;;;;147.63;87.97;;;30.20;99.90;;;;;;5051693;28;20293;-69
2022/04/22 10:49:11;;;;;;;90.80;54.83;;;30.10;99.90;;;;;;5051307;28;20060;-69
2022/04/22 10:52:09;;;;;;;61.50;37.30;;;30.10;99.90;;;;;;5053072;28;20044;-68
2022/04/22 10:55:07;;;;;;;52.97;31.33;;;30.00;99.90;;;;;;5045868;28;20865;-64
2022/04/22 10:57:36;;;;;;;47.42;31.00;;;30.00;99.90;;;;;;5039038;28;20456;-65
2022/04/22 11:00:27;;;;;;;44.33;28.10;;;30.00;99.90;;;;;;5051978;28;20036;-65
2022/04/22 11:03:04;;;;;;;50.40;31.60;;;30.10;99.90;;;;;;5043977;28;20036;-65
2022/04/22 11:05:37;;;;;;;47.13;27.20;;;30.10;99.90;;;;;;5057722;28;20083;-64
2022/04/22 11:08:16;;;;;;;50.85;29.20;;;30.00;99.90;;;;;;5056743;28;20052;-65
2022/04/22 11:11:01;;;;;;;47.05;28.67;;;30.00;99.90;;;;;;5037676;28;20032;-64
2022/04/22 11:13:41;;;;;;;40.15;25.15;;;29.90;99.90;;;;;;5037365;28;20022;-65
2022/04/22 11:16:13;;;;;;;27.88;19.00;;;29.90;99.90;;;;;;5053107;28;20500;-64
2022/04/22 11:18:45;;;;;;;70.40;54.63;;;29.80;99.90;;;;;;5056964;28;20029;-67
2022/04/22 11:21:40;;;;;;;85.45;60.20;;;29.70;99.90;;;;;;5057018;28;20556;-64
2022/04/22 11:24:14;;;;;;;62.83;44.25;;;29.70;99.90;;;;;;5047498;28;20084;-65
2022/04/22 11:26:42;;;;;;;60.05;46.03;;;29.60;99.90;;;;;;5037091;28;20028;-65
2022/04/22 11:29:11;;;;;;;179.13;145.50;;;29.60;99.90;;;;;;5046209;28;20021;-66
2022/04/22 11:31:39;;;;;;;152.25;113.13;;;29.60;99.90;;;;;;5056627;28;20032;-66
2022/04/22 11:34:16;;;;;;;40.33;28.98;;;29.50;99.90;;;;;;5053078;28;20394;-66
2022/04/22 11:36:46;;;;;;;43.45;27.67;;;29.50;99.90;;;;;;5056627;28;20032;-64
2022/04/22 11:39:23;;;;;;;29.38;19.23;;;29.50;99.90;;;;;;5054303;28;20032;-66
2022/04/22 11:41:59;;;;;;;29.58;17.92;;;29.50;99.90;;;;;;5042678;28;20030;-68
2022/04/22 11:44:30;;;;;;;33.97;19.50;;;29.60;99.90;;;;;;5056490;28;20525;-67
2022/04/22 11:47:06;;;;;;;35.50;23.27;;;29.60;99.90;;;;;;5047819;28;20037;-66
2022/04/22 11:49:38;;;;;;;33.45;22.63;;;29.60;99.90;;;;;;5041849;28;20025;-68
2022/04/22 11:52:13;;;;;;;76.03;52.40;;;29.60;99.90;;;;;;5046683;28;20028;-69
2022/04/22 11:54:49;;;;;;;63.63;42.95;;;29.60;99.90;;;;;;5044481;28;20039;-67
2022/04/22 11:57:38;;;;;;;70.30;48.70;;;29.60;99.90;;;;;;5051085;28;20037;-67
2022/04/22 12:05:35;;;;;;;108.65;72.50;;;29.50;99.90;;;;;;5043248;28;20540;-66
2022/04/22 12:08:14;;;;;;;344.15;234.20;;;29.40;99.90;;;;;;5050484;28;20180;-66
2022/04/22 12:10:48;;;;;;;136.52;91.47;;;29.50;99.90;;;;;;5048463;28;20086;-66
2022/04/22 12:13:21;;;;;;;118.35;81.40;;;29.50;99.90;;;;;;5054848;28;20094;-65
2022/04/22 12:15:51;;;;;;;;;;;29.40;99.90;;;;;;5036776;28;20040;-69
2022/04/22 12:18:31;;;;;;;62.35;43.22;;;29.40;99.90;;;;;;5054458;28;20019;-65
2022/04/22 12:21:06;;;;;;;83.22;50.50;;;29.40;99.90;;;;;;5052462;28;20049;-68
2022/04/22 12:23:36;;;;;;;106.68;68.50;;;29.50;99.90;;;;;;5049749;28;20176;-67
2022/04/22 12:26:05;;;;;;;98.43;58.80;;;29.50;99.90;;;;;;5055088;28;20402;-65
2022/04/22 12:28:34;;;;;;;119.55;61.60;;;29.60;99.90;;;;;;5053178;28;20029;-70
2022/04/22 12:31:05;;;;;;;98.25;53.40;;;29.50;99.90;;;;;;5064976;28;20479;-67
2022/04/22 12:33:36;;;;;;;117.45;74.65;;;29.50;99.90;;;;;;5047694;28;20032;-70
2022/04/22 12:36:10;;;;;;;132.23;82.00;;;29.50;99.90;;;;;;5054385;28;20461;-67
2022/04/22 12:38:38;;;;;;;125.85;80.95;;;29.60;99.90;;;;;;5055798;28;20385;-67
2022/04/22 12:41:18;;;;;;;93.05;59.53;;;29.60;99.90;;;;;;5066040;28;20483;-65
2022/04/22 12:43:54;;;;;;;71.50;44.30;;;29.70;99.90;;;;;;5058659;28;20037;-67
2022/04/22 12:52:31;;;;;;;58.13;33.38;;;29.50;99.90;;;;;;5055143;28;20510;-67
2022/04/22 12:55:08;;;;;;;51.28;29.73;;;29.50;99.90;;;;;;5057583;28;20075;-65
2022/04/22 12:57:57;;;;;;;57.90;34.75;;;29.50;99.90;;;;;;5063705;28;20412;-66
2022/04/22 13:00:43;;;;;;;63.75;40.03;;;29.60;99.90;;;;;;5053207;28;20024;-65
2022/04/22 13:03:18;;;;;;;66.32;39.67;;;29.50;99.90;;;;;;5062674;28;20025;-66
2022/04/22 13:05:55;;;;;;;100.53;70.85;;;29.40;99.90;;;;;;5058446;28;20119;-67
2022/04/22 13:08:26;;;;;;;91.28;63.30;;;29.30;99.90;;;;;;5056789;28;20041;-66
2022/04/22 13:11:04;;;;;;;88.78;61.55;;;29.40;99.90;;;;;;5049547;28;20025;-68
2022/04/22 13:13:33;;;;;;;86.35;58.90;;;29.40;99.90;;;;;;5065124;28;20108;-67
2022/04/22 13:16:05;;;;;;;90.32;58.88;;;29.40;99.90;;;;;;5054472;28;20017;-64
2022/04/22 13:18:35;;;;;;;76.25;45.53;;;29.40;99.90;;;;;;5047356;28;20032;-66
2022/04/22 13:21:04;;;;;;;68.35;43.50;;;29.40;99.90;;;;;;5056466;28;20029;-65
2022/04/22 13:23:38;;;;;;;64.90;39.47;;;29.40;99.90;;;;;;5056767;28;20029;-67
2022/04/22 13:26:15;;;;;;;62.58;38.92;;;29.30;99.90;;;;;;5059221;28;20543;-66
2022/04/22 13:28:50;;;;;;;50.42;28.60;;;29.30;99.90;;;;;;5056050;28;20068;-65
2022/04/22 13:31:22;;;;;;;57.83;39.63;;;29.10;99.90;;;;;;5054380;28;20033;-69
2022/04/22 13:33:51;;;;;;;82.53;61.92;;;29.10;99.90;;;;;;5058407;28;20055;-66
2022/04/22 13:36:20;;;;;;;63.65;52.38;;;29.10;99.90;;;;;;5050295;28;20055;-66
2022/04/22 13:38:51;;;;;;;45.38;29.58;;;29.10;99.90;;;;;;5064331;28;20021;-66
2022/04/22 13:41:24;;;;;;;31.70;21.20;;;29.10;99.90;;;;;;5055960;28;20401;-65
2022/04/22 13:43:56;;;;;;;28.25;16.77;;;29.10;99.90;;;;;;5061555;28;20474;-65
2022/04/22 13:54:44;;;;;;;20.45;12.75;;;29.00;99.90;;;;;;5059970;28;20076;-65
2022/04/22 13:57:18;;;;;;;21.13;11.80;;;28.90;99.90;;;;;;5061626;28;20017;-66
2022/04/22 13:59:52;;;;;;;55.75;42.83;;;28.80;99.90;;;;;;5048714;28;20486;-64
2022/04/22 14:02:22;;;;;;;269.15;197.45;;;28.80;99.90;;;;;;5061879;28;20028;-67
2022/04/22 14:04:54;;;;;;;48.67;39.08;;;28.80;99.90;;;;;;5061008;28;20061;-65
2022/04/22 14:07:24;;;;;;;79.25;56.33;;;28.80;99.90;;;;;;5055893;28;20082;-66